Time;durP1;ratioP1;P1;durP2;ratioP2;P2;SDS_P1;SDS_P2;PMS_P1;PMS_P2;Temp;Humidity;BMP_temperature;BMP_pressure;BME280_temperature;BME280_humidity;BME280_pressure;Samples;Min_cycle;Max_cycle;Signal;HPM_P1;HPM_P2
2022/01/31 00:01:04;;;;;;;14.90;3.77;;;;;;;2.28;81.41;99161.75;4990376;28;20204;-68
2022/01/31 00:03:34;;;;;;;14.77;4.30;;;;;;;2.41;81.07;99161.94;4988045;28;20744;-68
2022/01/31 00:06:01;;;;;;;15.43;3.23;;;;;;;2.50;80.80;99159.66;4988734;28;20201;-68
2022/01/31 00:08:28;;;;;;;16.03;3.60;;;;;;;2.54;80.15;99180.94;4990490;28;20251;-68
2022/01/31 00:10:55;;;;;;;21.13;4.83;;;;;;;2.53;79.31;99187.00;4990437;28;20213;-67
2022/01/31 00:13:26;;;;;;;18.13;4.60;;;;;;;2.40;80.39;99189.41;4990127;28;20197;-67
2022/01/31 00:15:56;;;;;;;22.67;5.30;;;;;;;2.27;81.21;99185.84;4990283;28;20209;-68
2022/01/31 00:18:22;;;;;;;20.80;5.37;;;;;;;2.17;82.88;99193.25;4993556;28;20280;-68
2022/01/31 00:20:51;;;;;;;15.17;5.23;;;;;;;2.15;82.55;99187.38;4994204;28;20186;-68
2022/01/31 00:23:18;;;;;;;16.40;4.47;;;;;;;2.06;81.61;99175.84;4993958;28;20182;-68
2022/01/31 00:25:45;;;;;;;16.57;4.70;;;;;;;1.96;82.96;99177.25;4992718;28;20225;-68
2022/01/31 00:28:13;;;;;;;17.43;5.33;;;;;;;1.95;84.22;99173.00;4993801;28;20692;-68
2022/01/31 00:30:40;;;;;;;20.67;5.20;;;;;;;1.81;84.30;99181.44;4992221;28;20908;-68
2022/01/31 00:33:08;;;;;;;14.03;4.77;;;;;;;1.66;85.23;99176.19;4996847;28;20200;-68
2022/01/31 00:35:37;;;;;;;12.47;5.00;;;;;;;1.70;84.95;99182.84;4996583;28;20213;-68
2022/01/31 00:38:05;;;;;;;19.17;5.23;;;;;;;1.57;85.28;99180.09;4992288;28;20550;-68
2022/01/31 00:40:34;;;;;;;16.17;4.93;;;;;;;1.55;86.24;99166.47;4996343;28;20236;-67
2022/01/31 00:43:00;;;;;;;14.53;4.63;;;;;;;1.54;86.77;99151.13;4993013;28;20227;-66
2022/01/31 00:45:30;;;;;;;15.53;4.50;;;;;;;1.56;87.34;99144.16;4990939;28;20299;-66
2022/01/31 00:48:04;;;;;;;19.53;4.30;;;;;;;1.72;85.76;99134.69;4995565;28;20348;-67
2022/01/31 00:50:37;;;;;;;15.30;4.63;;;;;;;1.73;87.13;99125.22;4993912;28;20923;-67
2022/01/31 00:53:05;;;;;;;17.20;5.10;;;;;;;1.74;87.01;99106.31;4996158;28;20718;-65
2022/01/31 00:55:32;;;;;;;18.63;3.90;;;;;;;1.83;85.06;99102.38;4995535;28;20231;-65
2022/01/31 00:57:59;;;;;;;12.93;3.47;;;;;;;1.94;84.74;99083.81;5014774;28;20813;-67
2022/01/31 01:00:26;;;;;;;21.67;3.00;;;;;;;2.06;84.58;99096.00;4998220;28;20196;-66
2022/01/31 01:02:53;;;;;;;11.07;3.00;;;;;;;2.14;82.40;99106.69;5001758;28;20592;-67
2022/01/31 01:05:20;;;;;;;17.90;3.10;;;;;;;2.27;81.94;99093.97;5003197;28;20360;-67
2022/01/31 01:07:47;;;;;;;13.93;3.40;;;;;;;2.56;79.78;99085.47;4991712;28;20205;-67
2022/01/31 01:10:17;;;;;;;18.40;3.80;;;;;;;2.67;79.60;99090.84;4992981;28;20192;-67
2022/01/31 01:12:44;;;;;;;16.73;3.13;;;;;;;2.71;80.12;99086.34;4992520;28;20684;-67
2022/01/31 01:15:11;;;;;;;11.63;3.77;;;;;;;2.71;79.29;99071.72;4991833;28;20217;-68
2022/01/31 01:17:39;;;;;;;13.43;3.10;;;;;;;2.77;78.97;99065.34;4991192;28;20197;-68
2022/01/31 01:20:06;;;;;;;17.57;3.87;;;;;;;2.74;79.67;99068.09;4990890;28;20210;-68
2022/01/31 01:22:33;;;;;;;12.90;2.90;;;;;;;2.86;78.62;99069.16;4991190;28;20804;-67
2022/01/31 01:25:03;;;;;;;12.33;3.23;;;;;;;2.83;77.99;99044.38;4981824;28;20223;-68
2022/01/31 01:27:32;;;;;;;17.50;3.43;;;;;;;2.84;78.91;99022.00;4989456;28;20229;-67
2022/01/31 01:29:59;;;;;;;14.60;3.13;;;;;;;2.83;78.63;99015.19;4991315;28;20264;-68
2022/01/31 01:32:33;;;;;;;17.37;3.90;;;;;;;2.83;78.67;99013.44;4991153;28;20268;-68
2022/01/31 01:35:04;;;;;;;14.33;3.60;;;;;;;2.88;78.42;99008.81;4989938;28;20729;-68
2022/01/31 01:37:31;;;;;;;15.23;3.50;;;;;;;2.86;78.25;98996.97;5007134;28;20193;-68
2022/01/31 01:39:59;;;;;;;16.57;3.90;;;;;;;2.93;77.29;99001.63;5006985;28;20201;-67
2022/01/31 01:42:26;;;;;;;13.30;3.20;;;;;;;2.95;76.73;98970.63;5007008;28;20189;-67
2022/01/31 01:44:54;;;;;;;10.17;3.93;;;;;;;2.92;76.89;98957.91;4980554;28;20225;-68
2022/01/31 01:47:25;;;;;;;15.67;3.83;;;;;;;2.97;76.65;98955.03;4998571;28;20193;-67
2022/01/31 01:49:53;;;;;;;15.87;2.87;;;;;;;2.95;75.78;98937.91;4986794;28;20763;-68
2022/01/31 01:52:26;;;;;;;9.43;3.50;;;;;;;2.95;76.27;98912.13;4990345;28;20213;-68
2022/01/31 01:54:53;;;;;;;16.13;3.83;;;;;;;2.95;75.63;98896.66;4973629;28;20265;-68
2022/01/31 01:57:23;;;;;;;15.10;3.20;;;;;;;3.00;75.00;98893.81;4989860;28;20200;-67
2022/01/31 01:59:55;;;;;;;10.80;2.90;;;;;;;3.01;75.49;98895.47;4990583;28;20194;-68
2022/01/31 02:02:56;;;;;;;11.87;3.17;;;;;;;3.06;74.59;98896.00;4991319;28;20207;-67
2022/01/31 02:05:24;;;;;;;11.13;2.90;;;;;;;3.00;75.08;98888.63;4989127;28;20209;-68
2022/01/31 02:07:52;;;;;;;13.90;3.23;;;;;;;2.99;75.42;98875.81;4976433;28;20198;-68
2022/01/31 02:10:20;;;;;;;15.63;3.43;;;;;;;3.00;75.33;98864.59;4990043;28;20201;-68
2022/01/31 02:13:04;;;;;;;10.70;3.17;;;;;;;3.01;74.60;98869.66;4990424;28;20285;-68
2022/01/31 02:15:57;;;;;;;13.10;3.00;;;;;;;3.01;75.36;98854.19;4975520;28;20558;-67
2022/01/31 02:18:50;;;;;;;11.23;3.00;;;;;;;3.09;74.73;98838.22;4982707;28;20204;-68
2022/01/31 02:21:37;;;;;;;11.20;2.90;;;;;;;3.13;74.13;98842.25;4991281;28;20565;-68
2022/01/31 02:24:23;;;;;;;12.17;2.63;;;;;;;3.14;74.05;98848.25;4990624;28;20209;-66
2022/01/31 02:27:09;;;;;;;14.00;2.97;;;;;;;3.15;74.69;98852.50;4990432;28;20676;-68
2022/01/31 02:29:36;;;;;;;11.67;2.13;;;;;;;3.13;73.74;98851.75;4994102;28;20633;-69
2022/01/31 02:32:03;;;;;;;10.70;2.73;;;;;;;3.24;72.57;98846.72;4989464;28;20716;-68
2022/01/31 02:34:30;;;;;;;12.67;3.10;;;;;;;3.30;72.77;98830.03;5005213;28;20704;-68
2022/01/31 02:36:59;;;;;;;13.83;3.03;;;;;;;3.33;73.34;98820.31;4994493;28;20197;-67
2022/01/31 02:39:26;;;;;;;9.87;2.70;;;;;;;3.33;72.25;98804.03;4973396;28;20240;-69
2022/01/31 02:41:53;;;;;;;9.90;2.77;;;;;;;3.43;71.48;98804.25;4989234;28;20193;-67
2022/01/31 02:44:21;;;;;;;16.10;3.50;;;;;;;3.48;71.11;98779.81;4990006;28;20536;-68
2022/01/31 02:47:18;;;;;;;9.30;3.30;;;;;;;3.49;70.45;98760.81;4989286;28;20697;-67
2022/01/31 02:49:51;;;;;;;13.13;2.60;;;;;;;3.46;71.18;98755.84;4983471;28;20206;-67
2022/01/31 02:52:20;;;;;;;11.03;3.07;;;;;;;3.48;71.16;98745.41;4989808;28;20213;-67
2022/01/31 02:54:47;;;;;;;10.57;2.87;;;;;;;3.45;71.51;98750.78;4989393;28;20212;-66
2022/01/31 02:57:16;;;;;;;15.83;2.83;;;;;;;3.45;71.12;98743.03;4977725;28;20296;-67
2022/01/31 02:59:42;;;;;;;13.60;3.00;;;;;;;3.46;70.53;98719.72;4989560;28;20677;-67
2022/01/31 03:02:10;;;;;;;12.00;3.10;;;;;;;3.42;71.53;98710.53;5005222;28;20953;-67
2022/01/31 03:04:36;;;;;;;5.37;2.50;;;;;;;3.47;70.74;98692.97;4989182;28;20696;-67
2022/01/31 03:07:10;;;;;;;17.77;2.83;;;;;;;3.46;71.14;98678.44;4979323;28;20308;-67
2022/01/31 03:09:38;;;;;;;9.27;2.63;;;;;;;3.45;70.97;98674.19;4986250;28;20228;-67
2022/01/31 03:12:09;;;;;;;13.20;3.50;;;;;;;3.45;72.00;98699.16;4993936;28;20233;-67
2022/01/31 03:14:45;;;;;;;8.90;3.07;;;;;;;3.51;71.48;98685.84;4992032;28;20763;-67
2022/01/31 03:17:31;;;;;;;11.57;2.87;;;;;;;3.57;71.33;98687.19;4987741;28;20212;-67
2022/01/31 03:19:59;;;;;;;16.93;2.77;;;;;;;3.56;70.82;98660.53;4998806;28;20530;-67
2022/01/31 03:22:26;;;;;;;14.50;3.00;;;;;;;3.57;71.17;98640.75;4998112;28;20193;-66
2022/01/31 03:24:54;;;;;;;14.87;3.10;;;;;;;3.58;71.83;98606.25;4986580;28;20201;-66
2022/01/31 03:27:21;;;;;;;10.73;2.60;;;;;;;3.60;71.33;98583.75;4998661;28;20195;-66
2022/01/31 03:29:48;;;;;;;11.77;2.67;;;;;;;3.60;71.05;98589.72;4998170;28;20182;-67
2022/01/31 03:32:15;;;;;;;13.00;2.87;;;;;;;3.63;72.26;98611.94;4994248;28;20204;-67
2022/01/31 03:34:41;;;;;;;11.93;2.70;;;;;;;3.69;72.93;98629.56;4993749;28;20240;-67
2022/01/31 03:37:08;;;;;;;8.67;2.67;;;;;;;3.70;71.71;98651.88;4988749;28;20194;-67
2022/01/31 03:39:35;;;;;;;11.33;2.50;;;;;;;3.73;72.06;98654.22;4996683;28;20221;-67
2022/01/31 03:42:04;;;;;;;6.13;2.00;;;;;;;3.81;71.66;98630.47;4998906;28;20193;-66
2022/01/31 03:44:31;;;;;;;7.57;2.53;;;;;;;3.82;71.26;98614.03;4987348;28;20228;-67
2022/01/31 03:46:59;;;;;;;12.90;2.70;;;;;;;3.83;71.08;98605.34;4989025;28;20186;-67
2022/01/31 03:49:26;;;;;;;10.87;3.00;;;;;;;3.80;71.83;98584.91;4990367;28;20264;-66
2022/01/31 03:52:04;;;;;;;8.67;2.40;;;;;;;3.81;70.57;98605.44;4990866;28;20498;-67
2022/01/31 03:54:41;;;;;;;16.80;3.40;;;;;;;3.86;70.64;98584.47;4990729;28;20219;-66
2022/01/31 03:57:09;;;;;;;11.40;2.63;;;;;;;4.02;70.88;98604.06;5001076;28;20289;-67
2022/01/31 03:59:49;;;;;;;11.17;2.70;;;;;;;4.01;71.06;98604.97;5001131;28;20663;-66
2022/01/31 04:02:16;;;;;;;10.77;2.87;;;;;;;3.97;70.61;98620.69;5000069;28;20588;-67
2022/01/31 04:04:43;;;;;;;7.13;2.47;;;;;;;4.08;69.37;98629.44;4991821;28;20633;-67
2022/01/31 04:07:09;;;;;;;10.53;2.60;;;;;;;4.06;70.51;98600.31;4992539;28;20240;-67
2022/01/31 04:09:36;;;;;;;8.70;2.47;;;;;;;4.01;71.01;98599.81;4991730;28;20292;-67
2022/01/31 04:12:04;;;;;;;12.07;2.57;;;;;;;4.04;70.63;98577.16;4992571;28;20216;-66
2022/01/31 04:14:32;;;;;;;9.00;2.93;;;;;;;4.07;69.92;98599.38;4991615;28;20220;-67
2022/01/31 04:16:59;;;;;;;14.83;2.97;;;;;;;4.08;70.30;98598.44;4992101;28;20208;-67
2022/01/31 04:19:26;;;;;;;11.23;2.90;;;;;;;4.06;69.69;98598.53;4991959;28;20220;-67
2022/01/31 04:21:53;;;;;;;6.90;2.40;;;;;;;4.08;69.65;98586.34;4992093;28;20569;-67
2022/01/31 04:24:23;;;;;;;13.67;3.00;;;;;;;4.11;70.06;98591.28;4990879;28;20210;-66
2022/01/31 04:26:58;;;;;;;12.07;2.53;;;;;;;4.17;68.76;98592.63;4992188;28;20198;-67
2022/01/31 04:29:29;;;;;;;8.97;2.60;;;;;;;4.14;69.76;98578.16;4992150;28;20204;-67
2022/01/31 04:31:57;;;;;;;6.90;2.73;;;;;;;4.18;70.75;98577.94;4992066;28;20241;-67
2022/01/31 04:34:24;;;;;;;6.70;2.53;;;;;;;4.16;70.53;98565.13;4991693;28;20235;-67
2022/01/31 04:36:51;;;;;;;8.67;2.60;;;;;;;4.16;70.25;98572.03;4992017;28;20286;-67
2022/01/31 04:39:19;;;;;;;11.57;2.47;;;;;;;4.12;69.77;98561.13;4991809;28;20717;-66
2022/01/31 04:41:48;;;;;;;18.37;2.67;;;;;;;4.15;70.57;98566.06;4992725;28;20202;-67
2022/01/31 04:44:15;;;;;;;8.80;2.73;;;;;;;4.18;69.40;98542.59;4991550;28;20720;-67
2022/01/31 04:46:43;;;;;;;8.67;2.63;;;;;;;4.22;69.82;98541.44;4991697;28;20621;-67
2022/01/31 04:49:11;;;;;;;10.67;3.30;;;;;;;4.23;69.64;98537.09;4991910;28;20196;-66
2022/01/31 04:51:38;;;;;;;8.53;2.77;;;;;;;4.20;70.75;98525.22;4992046;28;20276;-67
2022/01/31 04:54:04;;;;;;;13.90;2.60;;;;;;;4.21;69.41;98513.97;4991056;28;20263;-67
2022/01/31 04:56:31;;;;;;;8.10;2.63;;;;;;;4.19;70.24;98508.06;4992045;28;20228;-67
2022/01/31 04:58:58;;;;;;;13.43;2.93;;;;;;;4.19;69.71;98487.41;4992185;28;20593;-67
2022/01/31 05:01:24;;;;;;;9.77;2.10;;;;;;;4.19;70.29;98487.41;4991446;28;20245;-67
2022/01/31 05:03:51;;;;;;;10.40;2.70;;;;;;;4.23;68.95;98472.50;4991425;28;20253;-67
2022/01/31 05:06:26;;;;;;;11.23;2.80;;;;;;;4.22;69.83;98470.84;4991875;28;20553;-67
2022/01/31 05:08:53;;;;;;;9.67;2.73;;;;;;;4.18;70.17;98465.09;4991193;28;20677;-66
2022/01/31 05:11:20;;;;;;;8.93;2.83;;;;;;;4.19;71.36;98459.00;4991689;28;20202;-67
2022/01/31 05:13:46;;;;;;;8.13;2.73;;;;;;;4.12;72.44;98442.28;4991085;28;20206;-67
2022/01/31 05:16:13;;;;;;;10.53;2.30;;;;;;;4.11;71.63;98425.97;4991134;28;20199;-67
2022/01/31 05:18:40;;;;;;;12.57;3.20;;;;;;;4.09;71.99;98439.94;4991409;28;20627;-67
2022/01/31 05:21:09;;;;;;;12.50;2.67;;;;;;;4.11;72.58;98435.47;4991672;28;20204;-67
2022/01/31 05:23:37;;;;;;;9.73;3.53;;;;;;;4.13;72.63;98428.44;4989760;28;20251;-66
2022/01/31 05:26:05;;;;;;;12.50;3.10;;;;;;;4.16;72.47;98423.03;4990565;28;20218;-67
2022/01/31 05:28:31;;;;;;;13.00;3.50;;;;;;;4.12;73.56;98388.06;4991289;28;20198;-67
2022/01/31 05:30:58;;;;;;;9.40;2.77;;;;;;;4.13;72.11;98375.00;4990646;28;20229;-67
2022/01/31 05:33:25;;;;;;;10.83;3.43;;;;;;;4.15;72.67;98382.66;4991160;28;20307;-67
2022/01/31 05:35:52;;;;;;;9.17;3.80;;;;;;;4.17;71.82;98385.94;4990566;28;20601;-67
2022/01/31 05:38:19;;;;;;;13.00;2.97;;;;;;;4.19;72.79;98378.06;4990676;28;20204;-66
2022/01/31 05:40:47;;;;;;;12.07;3.43;;;;;;;4.27;73.04;98366.19;4989634;28;20237;-67
2022/01/31 05:43:16;;;;;;;10.90;3.13;;;;;;;4.22;73.52;98352.84;4989755;28;20208;-67
2022/01/31 05:45:43;;;;;;;8.27;3.20;;;;;;;4.25;73.32;98369.84;4989162;28;20225;-67
2022/01/31 05:48:10;;;;;;;12.43;3.40;;;;;;;4.23;72.38;98346.72;4989050;28;20227;-67
2022/01/31 05:50:37;;;;;;;15.53;3.50;;;;;;;4.29;72.47;98317.00;4990520;28;20669;-67
2022/01/31 05:53:03;;;;;;;12.23;3.40;;;;;;;4.22;73.80;98319.25;4990462;28;20259;-68
2022/01/31 05:55:30;;;;;;;21.47;8.70;;;;;;;4.18;75.43;98320.41;4990224;28;20263;-67
2022/01/31 05:57:58;;;;;;;10.67;4.10;;;;;;;4.18;74.46;98325.59;4990881;28;20664;-67
2022/01/31 06:00:25;;;;;;;12.23;4.40;;;;;;;4.21;74.45;98304.69;4990051;28;20269;-67
2022/01/31 06:02:58;;;;;;;11.93;3.40;;;;;;;4.22;74.45;98321.84;4990824;28;20181;-67
2022/01/31 06:05:25;;;;;;;12.63;3.40;;;;;;;4.25;74.52;98316.41;4990075;28;20289;-68
2022/01/31 06:07:52;;;;;;;13.97;3.70;;;;;;;4.25;75.75;98337.06;4990116;28;20181;-68
2022/01/31 06:10:19;;;;;;;12.67;3.70;;;;;;;4.22;75.53;98333.91;4990830;28;20378;-67
2022/01/31 06:12:45;;;;;;;10.13;3.40;;;;;;;4.21;75.83;98327.09;4990423;28;20212;-68
2022/01/31 06:15:13;;;;;;;11.60;3.20;;;;;;;4.18;78.35;98341.09;4988808;28;20213;-68
2022/01/31 06:17:40;;;;;;;13.83;3.10;;;;;;;4.14;77.54;98344.84;4990333;28;20189;-68
2022/01/31 06:20:08;;;;;;;13.73;3.60;;;;;;;4.15;78.69;98354.22;4990577;28;20542;-67
2022/01/31 06:22:34;;;;;;;11.20;3.47;;;;;;;4.01;81.98;98328.63;4988508;28;20178;-68
2022/01/31 06:25:01;;;;;;;8.70;3.50;;;;;;;3.94;82.99;98338.59;4990010;28;20209;-67
2022/01/31 06:27:34;;;;;;;18.53;6.13;;;;;;;3.84;84.68;98339.28;4994705;28;20232;-67
2022/01/31 06:30:01;;;;;;;9.77;3.90;;;;;;;3.73;85.88;98352.16;4997225;28;20193;-68
2022/01/31 06:32:30;;;;;;;10.83;4.20;;;;;;;3.48;89.27;98353.16;4972630;28;20201;-66
2022/01/31 06:34:57;;;;;;;13.30;3.80;;;;;;;3.31;91.27;98360.34;4989314;28;20240;-66
2022/01/31 06:37:24;;;;;;;10.50;4.97;;;;;;;3.31;90.49;98326.00;4989658;28;20695;-67
2022/01/31 06:39:50;;;;;;;16.30;4.40;;;;;;;3.30;91.30;98342.44;4989917;28;20413;-67
2022/01/31 06:42:18;;;;;;;10.83;4.17;;;;;;;3.29;91.86;98345.94;4987985;28;20189;-67
2022/01/31 06:44:44;;;;;;;13.60;4.93;;;;;;;3.26;93.29;98336.66;4988734;28;20217;-67
2022/01/31 06:47:11;;;;;;;11.87;4.07;;;;;;;3.20;93.97;98360.31;4989805;28;20185;-66
2022/01/31 06:49:39;;;;;;;11.83;4.23;;;;;;;3.23;92.85;98365.25;4990016;28;20185;-65
2022/01/31 06:52:07;;;;;;;16.50;4.40;;;;;;;3.21;93.48;98361.97;4989322;28;20192;-65
2022/01/31 06:54:34;;;;;;;10.57;4.13;;;;;;;3.21;92.83;98354.22;4988778;28;20236;-65
2022/01/31 06:57:01;;;;;;;11.07;4.23;;;;;;;3.22;93.78;98356.69;4989691;28;20276;-65
2022/01/31 06:59:28;;;;;;;8.43;4.20;;;;;;;3.21;95.14;98361.97;4989125;28;20200;-65
2022/01/31 07:01:55;;;;;;;12.80;3.43;;;;;;;3.21;91.99;98362.78;4989537;28;20185;-65
2022/01/31 07:04:21;;;;;;;10.27;3.87;;;;;;;3.24;91.75;98356.56;4989020;28;20205;-65
2022/01/31 07:06:50;;;;;;;11.93;3.77;;;;;;;3.21;93.78;98357.63;4989020;28;20197;-66
2022/01/31 07:09:16;;;;;;;12.93;3.70;;;;;;;3.20;95.00;98365.47;4989391;28;20199;-66
2022/01/31 07:11:44;;;;;;;10.03;4.07;;;;;;;3.21;94.87;98357.63;4989503;28;20677;-66
2022/01/31 07:14:29;;;;;;;11.33;4.53;;;;;;;3.18;94.37;98355.28;4988428;28;20532;-65
2022/01/31 07:16:56;;;;;;;11.03;4.13;;;;;;;3.15;94.31;98363.22;4989610;28;20590;-65
2022/01/31 07:19:27;;;;;;;14.13;4.83;;;;;;;3.18;94.88;98369.94;4988668;28;20193;-65
2022/01/31 07:21:55;;;;;;;10.50;4.73;;;;;;;3.16;95.58;98376.97;4992103;28;20206;-65
2022/01/31 07:24:25;;;;;;;18.77;7.13;;;;;;;3.10;97.16;98378.22;4988356;28;20704;-65
2022/01/31 07:26:53;;;;;;;8.67;4.63;;;;;;;3.06;95.24;98379.34;4988791;28;20615;-64
2022/01/31 07:29:20;;;;;;;12.83;4.90;;;;;;;3.03;97.35;98349.47;4989040;28;20286;-65
2022/01/31 07:31:48;;;;;;;18.10;7.97;;;;;;;3.02;98.04;98367.63;4988742;28;20454;-67
2022/01/31 07:34:17;;;;;;;11.73;4.57;;;;;;;3.01;98.53;98374.53;4988659;28;20271;-67
2022/01/31 07:36:46;;;;;;;9.40;4.70;;;;;;;2.99;99.33;98373.81;4989057;28;20193;-67
2022/01/31 07:39:14;;;;;;;11.63;4.27;;;;;;;2.96;99.72;98371.47;4989434;28;20190;-67
2022/01/31 07:41:41;;;;;;;12.60;4.27;;;;;;;2.98;100.00;98379.91;4989201;28;20197;-67
2022/01/31 07:44:09;;;;;;;10.30;4.20;;;;;;;3.01;97.37;98371.97;4988046;28;20228;-67
2022/01/31 07:46:36;;;;;;;9.67;4.37;;;;;;;3.03;100.00;98372.69;4984359;28;20216;-67
2022/01/31 07:49:03;;;;;;;9.87;4.80;;;;;;;3.08;100.00;98385.22;4987509;28;20272;-67
2022/01/31 07:51:30;;;;;;;13.93;5.57;;;;;;;3.07;98.60;98409.38;4987664;28;20662;-67
2022/01/31 07:53:57;;;;;;;15.87;6.90;;;;;;;3.09;99.44;98408.34;4987386;28;20209;-67
2022/01/31 07:56:25;;;;;;;11.33;5.17;;;;;;;3.07;100.00;98401.63;4988379;28;20204;-68
2022/01/31 07:58:52;;;;;;;11.60;5.73;;;;;;;2.99;100.00;98409.09;4988003;28;20197;-67
2022/01/31 08:01:20;;;;;;;12.13;4.97;;;;;;;3.02;100.00;98398.56;4988340;28;20193;-68
2022/01/31 08:03:47;;;;;;;10.70;5.20;;;;;;;3.00;100.00;98409.00;4993084;28;20239;-68
2022/01/31 08:06:14;;;;;;;13.37;5.43;;;;;;;2.96;100.00;98402.41;4997809;28;20224;-67
2022/01/31 08:08:42;;;;;;;13.87;5.10;;;;;;;2.94;100.00;98389.59;5000658;28;20204;-67
2022/01/31 08:11:09;;;;;;;8.23;5.47;;;;;;;2.94;100.00;98387.03;5000166;28;20190;-68
2022/01/31 08:13:38;;;;;;;8.83;5.17;;;;;;;2.96;100.00;98389.50;5002723;28;20219;-66
2022/01/31 08:16:10;;;;;;;10.27;4.60;;;;;;;2.98;100.00;98416.03;4999920;28;20189;-65
2022/01/31 08:18:39;;;;;;;9.50;4.20;;;;;;;2.97;100.00;98432.41;5000287;28;20224;-66
2022/01/31 08:21:06;;;;;;;8.73;4.73;;;;;;;2.95;100.00;98432.50;4998556;28;20252;-67
2022/01/31 08:23:33;;;;;;;8.73;4.60;;;;;;;2.93;100.00;98431.78;4998217;28;20185;-69
2022/01/31 08:26:01;;;;;;;10.03;4.30;;;;;;;2.91;100.00;98419.97;4999952;28;20284;-67
2022/01/31 08:28:35;;;;;;;10.90;4.83;;;;;;;2.90;100.00;98423.47;4998242;28;20189;-68
2022/01/31 08:31:07;;;;;;;10.27;4.17;;;;;;;2.93;100.00;98423.25;4992107;28;20680;-69
2022/01/31 08:33:37;;;;;;;6.60;3.17;;;;;;;2.98;100.00;98425.50;4986464;28;20301;-68
2022/01/31 08:36:06;;;;;;;19.63;11.83;;;;;;;2.99;100.00;98403.94;4987491;28;20186;-69
2022/01/31 08:38:34;;;;;;;10.27;5.00;;;;;;;3.02;100.00;98417.44;4991101;28;20190;-68
2022/01/31 08:41:02;;;;;;;6.57;3.00;;;;;;;3.07;100.00;98409.38;4991283;28;20665;-68
2022/01/31 08:43:29;;;;;;;9.87;3.67;;;;;;;3.14;100.00;98409.78;4998296;28;20569;-69
2022/01/31 08:45:57;;;;;;;8.77;3.80;;;;;;;3.19;100.00;98403.34;4953550;28;1104249;-69
2022/01/31 08:48:26;;;;;;;4.27;2.83;;;;;;;3.34;100.00;98390.28;4992141;28;20205;-68
2022/01/31 08:50:54;;;;;;;6.77;2.60;;;;;;;3.42;98.73;98403.47;4991812;28;20661;-69
2022/01/31 08:53:21;;;;;;;5.40;2.33;;;;;;;3.48;98.53;98397.84;4991781;28;20259;-69
2022/01/31 08:55:50;;;;;;;6.23;2.87;;;;;;;3.47;98.90;98392.78;4991145;28;20212;-69
2022/01/31 08:58:17;;;;;;;4.57;2.50;;;;;;;3.53;97.31;98395.78;4991499;28;20209;-68
2022/01/31 09:00:49;;;;;;;8.30;2.43;;;;;;;3.67;98.97;98404.28;4974486;28;20198;-69
2022/01/31 09:03:32;;;;;;;5.63;2.60;;;;;;;3.69;96.74;98399.81;4991888;28;20189;-69
2022/01/31 09:06:01;;;;;;;7.20;2.58;;;;;;;3.81;95.69;98401.47;4989460;28;20927;-68
2022/01/31 09:08:27;;;;;;;4.63;2.27;;;;;;;3.82;96.08;98386.81;4993802;28;20189;-67
2022/01/31 09:10:54;;;;;;;5.17;2.40;;;;;;;3.80;95.83;98379.16;4990902;28;20189;-68
2022/01/31 09:13:21;;;;;;;3.87;2.03;;;;;;;3.78;96.79;98387.97;4991570;28;20209;-68
2022/01/31 09:15:48;;;;;;;4.70;2.50;;;;;;;3.84;95.35;98393.50;4991262;28;20217;-69
2022/01/31 09:18:14;;;;;;;5.63;2.10;;;;;;;3.86;93.17;98382.22;4991640;28;20194;-68
2022/01/31 09:20:41;;;;;;;5.33;2.17;;;;;;;3.74;95.80;98377.03;4991438;28;20208;-67
2022/01/31 09:23:10;;;;;;;5.93;2.10;;;;;;;3.68;96.53;98380.09;4996760;28;20236;-68
2022/01/31 09:25:43;;;;;;;4.23;1.80;;;;;;;3.76;94.58;98374.34;4990835;28;20309;-68
2022/01/31 09:28:11;;;;;;;8.20;2.10;;;;;;;3.77;94.70;98379.41;4989766;28;20190;-67
2022/01/31 09:30:38;;;;;;;6.30;2.10;;;;;;;3.84;94.69;98369.44;4990416;28;20191;-67
2022/01/31 09:33:05;;;;;;;6.37;2.10;;;;;;;3.80;94.55;98378.34;4989921;28;20228;-67
2022/01/31 09:35:33;;;;;;;4.50;2.40;;;;;;;3.83;95.31;98373.78;4990594;28;20202;-68
2022/01/31 09:38:00;;;;;;;5.83;2.20;;;;;;;3.70;94.14;98373.06;4991246;28;20189;-67
2022/01/31 09:40:28;;;;;;;4.03;1.80;;;;;;;3.86;91.12;98384.81;4990001;28;20201;-68
2022/01/31 09:43:13;;;;;;;5.00;2.30;;;;;;;3.77;93.16;98381.97;4989906;28;20272;-67
2022/01/31 09:45:58;;;;;;;5.23;2.47;;;;;;;3.74;93.45;98386.56;4990161;28;20216;-67
2022/01/31 09:48:33;;;;;;;6.43;2.80;;;;;;;3.79;94.26;98403.34;4989199;28;20197;-68
2022/01/31 09:51:02;;;;;;;3.90;2.00;;;;;;;3.83;91.72;98402.19;4990657;28;20205;-67
2022/01/31 09:53:31;;;;;;;5.67;1.77;;;;;;;3.84;92.30;98410.75;4985925;28;20209;-68
2022/01/31 09:56:00;;;;;;;7.00;3.00;;;;;;;3.78;94.06;98411.22;4975981;28;20679;-66
2022/01/31 09:58:29;;;;;;;6.90;2.20;;;;;;;3.79;93.48;98421.41;4988401;28;20208;-67
2022/01/31 10:01:08;;;;;;;6.57;2.03;;;;;;;3.69;93.31;98425.63;4995789;28;21040;-67
2022/01/31 10:03:48;;;;;;;2.97;1.93;;;;;;;3.68;94.04;98439.47;4989680;28;20243;-66
2022/01/31 10:06:23;;;;;;;7.17;1.77;;;;;;;3.69;94.68;98418.69;4989748;28;20189;-67
2022/01/31 10:09:01;;;;;;;3.10;1.83;;;;;;;3.72;93.71;98420.22;4989245;28;20276;-67
2022/01/31 10:11:38;;;;;;;4.23;2.00;;;;;;;3.85;93.16;98407.25;4988939;28;20828;-67
2022/01/31 10:16:56;;;;;;;5.33;2.00;;;;;;;4.01;92.80;98426.78;4995941;28;20221;-68
2022/01/31 10:19:23;;;;;;;4.57;2.77;;;;;;;4.12;91.40;98417.28;4990548;28;20197;-67
2022/01/31 10:21:56;;;;;;;4.30;1.83;;;;;;;4.20;91.62;98408.97;4990895;28;20202;-68
2022/01/31 10:24:23;;;;;;;6.47;2.50;;;;;;;4.18;91.90;98422.91;4990760;28;20297;-68
2022/01/31 10:26:52;;;;;;;6.07;2.07;;;;;;;4.09;91.19;98420.09;4991685;28;20189;-67
2022/01/31 10:29:21;;;;;;;8.77;2.00;;;;;;;4.07;90.42;98411.63;4991089;28;20207;-69
2022/01/31 10:32:01;;;;;;;6.97;2.00;;;;;;;4.10;91.33;98397.69;4991571;28;20199;-68
2022/01/31 10:34:29;;;;;;;5.33;2.80;;;;;;;4.13;90.53;98413.75;4993360;28;20324;-68
2022/01/31 10:37:02;;;;;;;48.90;9.03;;;;;;;4.19;89.59;98386.66;4991757;28;20192;-69
2022/01/31 10:51:06;;;;;;;5.90;1.63;;;;;;;4.61;83.80;98408.50;4957057;28;20201;-64
2022/01/31 10:53:38;;;;;;;5.60;1.50;;;;;;;4.60;81.04;98419.78;4989778;28;20201;-66
2022/01/31 10:56:05;;;;;;;5.23;1.93;;;;;;;4.40;83.20;98419.53;4987580;28;20640;-68
2022/01/31 10:58:33;;;;;;;5.87;2.47;;;;;;;4.45;83.95;98409.66;4987895;28;20198;-69
2022/01/31 11:01:12;;;;;;;9.13;2.03;;;;;;;4.39;83.94;98410.13;4990706;28;20189;-73
2022/01/31 11:03:40;;;;;;;7.13;1.67;;;;;;;4.65;82.59;98402.97;4990853;28;20546;-62
2022/01/31 11:06:08;;;;;;;5.43;1.53;;;;;;;4.50;82.03;98410.13;4990850;28;20177;-69
2022/01/31 11:08:35;;;;;;;7.63;1.53;;;;;;;4.64;80.49;98419.44;4990558;28;20189;-68
2022/01/31 11:11:03;;;;;;;6.90;1.70;;;;;;;4.70;78.93;98403.44;4990270;28;20198;-70
2022/01/31 11:13:34;;;;;;;11.07;3.03;;;;;;;4.63;78.84;98407.44;4990749;28;20191;-69
2022/01/31 11:16:01;;;;;;;11.07;2.97;;;;;;;4.96;82.85;98399.75;4990683;28;20237;-68
2022/01/31 11:18:30;;;;;;;9.70;4.17;;;;;;;4.71;79.53;98396.50;4990817;28;20193;-69
2022/01/31 11:21:00;;;;;;;11.80;6.53;;;;;;;4.67;77.66;98415.78;4990810;28;20200;-68
2022/01/31 11:23:28;;;;;;;8.30;2.93;;;;;;;4.65;77.67;98402.16;4990151;28;20197;-69
2022/01/31 11:25:58;;;;;;;5.63;3.03;;;;;;;4.56;78.86;98401.91;4990316;28;20224;-68
2022/01/31 11:28:28;;;;;;;10.40;2.63;;;;;;;4.67;78.83;98411.44;4990147;28;20255;-68
2022/01/31 11:30:57;;;;;;;7.13;1.73;;;;;;;4.52;80.68;98410.84;4990324;28;20281;-67
2022/01/31 11:33:24;;;;;;;6.87;2.57;;;;;;;4.51;81.60;98416.16;4990495;28;20192;-68
2022/01/31 11:35:53;;;;;;;6.65;2.92;;;;;;;4.48;82.31;98414.59;4988618;28;20443;-68
2022/01/31 11:38:20;;;;;;;5.93;1.53;;;;;;;4.32;82.09;98409.78;4990109;28;20185;-68
2022/01/31 11:40:47;;;;;;;5.90;1.63;;;;;;;4.28;82.42;98401.44;4990131;28;20199;-69
2022/01/31 11:43:16;;;;;;;5.93;2.23;;;;;;;4.46;81.06;98406.13;4987573;28;20197;-68
2022/01/31 11:45:46;;;;;;;5.27;2.00;;;;;;;4.34;79.98;98397.56;4989740;28;20217;-68
2022/01/31 11:48:21;;;;;;;6.13;1.90;;;;;;;4.36;81.22;98406.03;4987945;28;20188;-69
2022/01/31 11:50:49;;;;;;;5.43;1.70;;;;;;;4.39;78.87;98384.28;4989789;28;20192;-67
2022/01/31 11:53:26;;;;;;;5.47;1.93;;;;;;;4.39;80.72;98374.78;4990201;28;20215;-67
2022/01/31 11:55:52;;;;;;;6.40;1.67;;;;;;;4.40;80.08;98384.19;4989523;28;20201;-68
2022/01/31 11:58:19;;;;;;;5.33;1.50;;;;;;;4.37;79.57;98371.50;4989106;28;20203;-68
2022/01/31 12:00:48;;;;;;;6.27;1.97;;;;;;;4.39;79.80;98371.38;4990246;28;20247;-67